sensor_id;sensor_type;location;lat;lon;timestamp;P1;durP1;ratioP1;P2;durP2;ratioP2
42846;SDS011;75159;49.916;14.536;2024-02-23T00:00:35;0.47;;;0.47;;
42846;SDS011;75159;49.916;14.536;2024-02-23T00:11:16;0.70;;;0.70;;
42846;SDS011;75159;49.916;14.536;2024-02-23T00:21:37;1.23;;;0.50;;
42846;SDS011;75159;49.916;14.536;2024-02-23T00:32:03;0.50;;;0.50;;
42846;SDS011;75159;49.916;14.536;2024-02-23T00:42:24;0.30;;;0.30;;
42846;SDS011;75159;49.916;14.536;2024-02-23T00:52:45;0.40;;;0.40;;
42846;SDS011;75159;49.916;14.536;2024-02-23T01:03:06;0.75;;;0.60;;
42846;SDS011;75159;49.916;14.536;2024-02-23T01:13:27;1.17;;;0.95;;
42846;SDS011;75159;49.916;14.536;2024-02-23T01:23:48;0.50;;;0.50;;
42846;SDS011;75159;49.916;14.536;2024-02-23T01:34:09;1.38;;;0.52;;
42846;SDS011;75159;49.916;14.536;2024-02-23T01:44:30;1.52;;;0.60;;
42846;SDS011;75159;49.916;14.536;2024-02-23T01:54:51;0.47;;;0.45;;
42846;SDS011;75159;49.916;14.536;2024-02-23T02:05:12;0.60;;;0.60;;
42846;SDS011;75159;49.916;14.536;2024-02-23T02:15:33;0.55;;;0.40;;
42846;SDS011;75159;49.916;14.536;2024-02-23T02:25:56;0.43;;;0.40;;
42846;SDS011;75159;49.916;14.536;2024-02-23T02:36:18;0.43;;;0.43;;
42846;SDS011;75159;49.916;14.536;2024-02-23T02:46:39;0.52;;;0.40;;
42846;SDS011;75159;49.916;14.536;2024-02-23T02:57:00;0.32;;;0.32;;
42846;SDS011;75159;49.916;14.536;2024-02-23T03:07:21;0.40;;;0.40;;
42846;SDS011;75159;49.916;14.536;2024-02-23T03:17:42;0.22;;;0.20;;
42846;SDS011;75159;49.916;14.536;2024-02-23T03:28:03;0.30;;;0.20;;
42846;SDS011;75159;49.916;14.536;2024-02-23T03:38:24;0.13;;;0.13;;
42846;SDS011;75159;49.916;14.536;2024-02-23T03:48:46;0.20;;;0.20;;
42846;SDS011;75159;49.916;14.536;2024-02-23T03:59:08;0.10;;;0.10;;
42846;SDS011;75159;49.916;14.536;2024-02-23T04:09:30;0.47;;;0.10;;
42846;SDS011;75159;49.916;14.536;2024-02-23T04:19:50;0.38;;;0.10;;
42846;SDS011;75159;49.916;14.536;2024-02-23T04:30:11;0.00;;;0.00;;
42846;SDS011;75159;49.916;14.536;2024-02-23T04:40:33;0.10;;;0.10;;
42846;SDS011;75159;49.916;14.536;2024-02-23T04:50:53;0.60;;;0.10;;
42846;SDS011;75159;49.916;14.536;2024-02-23T05:01:14;1.27;;;0.13;;
42846;SDS011;75159;49.916;14.536;2024-02-23T05:11:36;0.57;;;0.10;;
42846;SDS011;75159;49.916;14.536;2024-02-23T05:21:56;0.55;;;0.10;;
42846;SDS011;75159;49.916;14.536;2024-02-23T05:32:17;0.20;;;0.20;;
42846;SDS011;75159;49.916;14.536;2024-02-23T05:42:39;0.22;;;0.13;;
42846;SDS011;75159;49.916;14.536;2024-02-23T05:53:00;0.93;;;0.25;;
42846;SDS011;75159;49.916;14.536;2024-02-23T06:03:21;0.55;;;0.30;;
42846;SDS011;75159;49.916;14.536;2024-02-23T06:13:42;0.17;;;0.17;;
42846;SDS011;75159;49.916;14.536;2024-02-23T06:24:02;1.00;;;0.30;;
42846;SDS011;75159;49.916;14.536;2024-02-23T06:34:24;0.10;;;0.10;;
42846;SDS011;75159;49.916;14.536;2024-02-23T06:44:45;0.17;;;0.17;;
42846;SDS011;75159;49.916;14.536;2024-02-23T06:55:07;0.30;;;0.20;;
42846;SDS011;75159;49.916;14.536;2024-02-23T07:05:30;0.30;;;0.30;;
42846;SDS011;75159;49.916;14.536;2024-02-23T07:15:52;0.10;;;0.10;;
42846;SDS011;75159;49.916;14.536;2024-02-23T07:26:13;0.25;;;0.20;;
42846;SDS011;75159;49.916;14.536;2024-02-23T07:36:34;0.75;;;0.60;;
42846;SDS011;75159;49.916;14.536;2024-02-23T07:46:55;0.70;;;0.30;;
42846;SDS011;75159;49.916;14.536;2024-02-23T07:57:16;1.15;;;0.32;;
42846;SDS011;75159;49.916;14.536;2024-02-23T08:07:37;0.20;;;0.20;;
42846;SDS011;75159;49.916;14.536;2024-02-23T08:17:58;0.70;;;0.43;;
42846;SDS011;75159;49.916;14.536;2024-02-23T08:28:19;0.47;;;0.28;;
42846;SDS011;75159;49.916;14.536;2024-02-23T08:38:40;1.63;;;0.30;;
42846;SDS011;75159;49.916;14.536;2024-02-23T08:49:01;0.55;;;0.38;;
42846;SDS011;75159;49.916;14.536;2024-02-23T08:59:22;0.40;;;0.40;;
42846;SDS011;75159;49.916;14.536;2024-02-23T09:09:43;1.33;;;0.43;;
42846;SDS011;75159;49.916;14.536;2024-02-23T09:20:05;1.33;;;0.40;;
42846;SDS011;75159;49.916;14.536;2024-02-23T09:30:26;1.30;;;0.22;;
42846;SDS011;75159;49.916;14.536;2024-02-23T09:40:47;2.60;;;0.60;;
42846;SDS011;75159;49.916;14.536;2024-02-23T09:51:08;0.88;;;0.50;;
42846;SDS011;75159;49.916;14.536;2024-02-23T10:01:32;2.00;;;0.60;;
42846;SDS011;75159;49.916;14.536;2024-02-23T10:11:57;1.17;;;0.55;;
42846;SDS011;75159;49.916;14.536;2024-02-23T10:22:18;1.10;;;0.90;;
42846;SDS011;75159;49.916;14.536;2024-02-23T10:32:41;1.10;;;0.40;;
42846;SDS011;75159;49.916;14.536;2024-02-23T10:43:03;1.95;;;0.40;;
42846;SDS011;75159;49.916;14.536;2024-02-23T10:53:28;1.50;;;0.40;;
42846;SDS011;75159;49.916;14.536;2024-02-23T11:03:50;0.88;;;0.40;;
42846;SDS011;75159;49.916;14.536;2024-02-23T11:14:13;0.88;;;0.45;;
42846;SDS011;75159;49.916;14.536;2024-02-23T11:24:34;2.50;;;0.50;;
42846;SDS011;75159;49.916;14.536;2024-02-23T11:34:55;0.93;;;0.32;;
42846;SDS011;75159;49.916;14.536;2024-02-23T11:45:17;0.77;;;0.77;;
42846;SDS011;75159;49.916;14.536;2024-02-23T11:55:38;1.05;;;0.55;;
42846;SDS011;75159;49.916;14.536;2024-02-23T12:06:00;1.48;;;0.50;;
42846;SDS011;75159;49.916;14.536;2024-02-23T12:16:22;0.82;;;0.40;;
42846;SDS011;75159;49.916;14.536;2024-02-23T12:26:43;1.05;;;0.50;;
42846;SDS011;75159;49.916;14.536;2024-02-23T12:37:04;2.10;;;0.73;;
42846;SDS011;75159;49.916;14.536;2024-02-23T12:47:26;2.00;;;0.77;;
42846;SDS011;75159;49.916;14.536;2024-02-23T12:57:46;1.20;;;0.55;;
42846;SDS011;75159;49.916;14.536;2024-02-23T13:08:07;1.05;;;0.73;;
42846;SDS011;75159;49.916;14.536;2024-02-23T13:18:28;1.65;;;0.80;;
42846;SDS011;75159;49.916;14.536;2024-02-23T13:28:49;0.70;;;0.60;;
42846;SDS011;75159;49.916;14.536;2024-02-23T13:39:09;1.10;;;0.70;;
42846;SDS011;75159;49.916;14.536;2024-02-23T13:49:31;2.05;;;0.82;;
42846;SDS011;75159;49.916;14.536;2024-02-23T13:59:52;2.15;;;0.60;;
42846;SDS011;75159;49.916;14.536;2024-02-23T14:10:13;1.25;;;0.73;;
42846;SDS011;75159;49.916;14.536;2024-02-23T14:20:34;2.78;;;1.20;;
42846;SDS011;75159;49.916;14.536;2024-02-23T14:30:55;2.08;;;0.60;;
42846;SDS011;75159;49.916;14.536;2024-02-23T14:41:16;1.02;;;0.70;;
42846;SDS011;75159;49.916;14.536;2024-02-23T14:51:37;1.90;;;1.00;;
42846;SDS011;75159;49.916;14.536;2024-02-23T15:01:58;2.65;;;1.20;;
42846;SDS011;75159;49.916;14.536;2024-02-23T15:12:19;4.38;;;1.50;;
42846;SDS011;75159;49.916;14.536;2024-02-23T15:22:42;2.25;;;0.85;;
42846;SDS011;75159;49.916;14.536;2024-02-23T15:33:09;2.80;;;0.88;;
42846;SDS011;75159;49.916;14.536;2024-02-23T15:43:31;1.23;;;0.90;;
42846;SDS011;75159;49.916;14.536;2024-02-23T15:53:52;3.58;;;1.35;;
42846;SDS011;75159;49.916;14.536;2024-02-23T16:04:13;4.38;;;0.95;;
42846;SDS011;75159;49.916;14.536;2024-02-23T16:14:34;3.67;;;1.33;;
42846;SDS011;75159;49.916;14.536;2024-02-23T16:24:55;2.30;;;1.20;;
42846;SDS011;75159;49.916;14.536;2024-02-23T16:35:16;1.65;;;1.17;;
42846;SDS011;75159;49.916;14.536;2024-02-23T16:45:39;2.08;;;1.30;;
42846;SDS011;75159;49.916;14.536;2024-02-23T16:56:00;3.53;;;1.52;;
42846;SDS011;75159;49.916;14.536;2024-02-23T17:06:21;2.13;;;1.30;;
42846;SDS011;75159;49.916;14.536;2024-02-23T17:16:42;3.97;;;1.10;;
42846;SDS011;75159;49.916;14.536;2024-02-23T17:27:03;2.63;;;1.60;;
42846;SDS011;75159;49.916;14.536;2024-02-23T17:37:27;3.13;;;1.35;;
42846;SDS011;75159;49.916;14.536;2024-02-23T17:47:47;2.67;;;1.23;;
42846;SDS011;75159;49.916;14.536;2024-02-23T17:58:15;2.72;;;1.75;;
42846;SDS011;75159;49.916;14.536;2024-02-23T18:08:40;3.47;;;2.13;;
42846;SDS011;75159;49.916;14.536;2024-02-23T18:19:01;3.47;;;1.98;;
42846;SDS011;75159;49.916;14.536;2024-02-23T18:29:24;3.75;;;1.90;;
42846;SDS011;75159;49.916;14.536;2024-02-23T18:39:45;7.65;;;2.58;;
42846;SDS011;75159;49.916;14.536;2024-02-23T18:50:06;4.75;;;1.95;;
42846;SDS011;75159;49.916;14.536;2024-02-23T19:00:28;7.38;;;2.53;;
42846;SDS011;75159;49.916;14.536;2024-02-23T19:10:49;3.78;;;2.67;;
42846;SDS011;75159;49.916;14.536;2024-02-23T19:21:10;5.85;;;1.70;;
42846;SDS011;75159;49.916;14.536;2024-02-23T19:31:31;2.80;;;1.25;;
42846;SDS011;75159;49.916;14.536;2024-02-23T19:41:52;3.42;;;1.48;;
42846;SDS011;75159;49.916;14.536;2024-02-23T19:52:12;3.88;;;1.30;;
42846;SDS011;75159;49.916;14.536;2024-02-23T20:02:34;5.20;;;1.67;;
42846;SDS011;75159;49.916;14.536;2024-02-23T20:12:56;2.58;;;1.40;;
42846;SDS011;75159;49.916;14.536;2024-02-23T20:23:17;2.72;;;1.13;;
42846;SDS011;75159;49.916;14.536;2024-02-23T20:33:38;2.28;;;1.40;;
42846;SDS011;75159;49.916;14.536;2024-02-23T20:44:01;4.38;;;1.70;;
42846;SDS011;75159;49.916;14.536;2024-02-23T20:54:22;3.80;;;1.50;;
42846;SDS011;75159;49.916;14.536;2024-02-23T21:04:43;3.10;;;1.10;;
42846;SDS011;75159;49.916;14.536;2024-02-23T21:15:04;1.90;;;1.60;;
42846;SDS011;75159;49.916;14.536;2024-02-23T21:25:26;2.67;;;1.42;;
42846;SDS011;75159;49.916;14.536;2024-02-23T21:35:47;3.90;;;1.90;;
42846;SDS011;75159;49.916;14.536;2024-02-23T21:46:08;1.38;;;1.08;;
42846;SDS011;75159;49.916;14.536;2024-02-23T21:56:32;4.10;;;1.13;;
42846;SDS011;75159;49.916;14.536;2024-02-23T22:06:53;3.10;;;1.25;;
42846;SDS011;75159;49.916;14.536;2024-02-23T22:17:14;3.08;;;1.60;;
42846;SDS011;75159;49.916;14.536;2024-02-23T22:27:35;3.67;;;1.63;;
42846;SDS011;75159;49.916;14.536;2024-02-23T22:37:56;2.83;;;1.70;;
42846;SDS011;75159;49.916;14.536;2024-02-23T22:48:18;3.47;;;1.42;;
42846;SDS011;75159;49.916;14.536;2024-02-23T22:58:39;2.47;;;1.13;;
42846;SDS011;75159;49.916;14.536;2024-02-23T23:09:00;3.13;;;1.67;;
42846;SDS011;75159;49.916;14.536;2024-02-23T23:19:20;1.83;;;1.20;;
42846;SDS011;75159;49.916;14.536;2024-02-23T23:29:42;2.58;;;1.75;;
42846;SDS011;75159;49.916;14.536;2024-02-23T23:40:03;1.73;;;1.40;;
42846;SDS011;75159;49.916;14.536;2024-02-23T23:50:25;1.77;;;1.25;;
